createdAt,value
2019-05-15T00:00:49.726Z,2.05
2019-05-15T00:03:39.360Z,1.80
2019-05-15T00:06:29.084Z,1.62
2019-05-15T00:09:19.363Z,1.92
2019-05-15T00:12:10.075Z,1.67
2019-05-15T00:15:02.812Z,1.90
2019-05-15T00:17:54.657Z,1.82
2019-05-15T00:20:45.488Z,2.02
2019-05-15T00:23:41.172Z,1.95
2019-05-15T00:26:31.358Z,1.62
2019-05-15T00:29:21.927Z,1.80
2019-05-15T00:32:12.116Z,2.33
2019-05-15T00:35:02.273Z,2.08
2019-05-15T00:37:58.528Z,2.00
2019-05-15T00:43:39.574Z,1.82
2019-05-15T00:46:30.211Z,2.12
2019-05-15T00:49:20.724Z,2.20
2019-05-15T00:52:12.302Z,1.90
2019-05-15T00:55:08.660Z,1.82
2019-05-15T00:57:59.059Z,1.80
2019-05-15T01:00:49.139Z,1.87
2019-05-15T01:03:38.940Z,1.92
2019-05-15T01:06:29.741Z,1.90
2019-05-15T01:09:19.408Z,1.90
2019-05-15T01:12:09.181Z,2.20
2019-05-15T01:14:58.664Z,1.77
2019-05-15T01:17:49.337Z,2.05
2019-05-15T01:20:39.483Z,1.70
2019-05-15T01:23:28.671Z,1.67
2019-05-15T01:26:18.815Z,1.82
2019-05-15T01:29:09.208Z,1.90
2019-05-15T01:31:59.417Z,1.90
2019-05-15T01:34:49.199Z,1.90
2019-05-15T01:37:40.333Z,1.80
2019-05-15T01:40:30.249Z,1.82
2019-05-15T01:43:19.752Z,2.42
2019-05-15T01:46:09.474Z,2.02
2019-05-15T01:48:59.365Z,2.00
2019-05-15T01:51:48.601Z,1.75
2019-05-15T01:54:39.111Z,1.65
2019-05-15T01:57:29.343Z,1.90
2019-05-15T02:00:19.168Z,1.85
2019-05-15T02:03:10.075Z,1.92
2019-05-15T02:05:59.687Z,1.80
2019-05-15T02:08:49.941Z,1.80
2019-05-15T02:11:39.798Z,2.12
2019-05-15T02:14:29.874Z,2.12
2019-05-15T02:17:19.192Z,1.92
2019-05-15T02:20:08.823Z,2.05
2019-05-15T02:22:59.086Z,1.77
2019-05-15T02:25:48.970Z,2.00
2019-05-15T02:28:39.369Z,1.70
2019-05-15T02:31:30.248Z,2.00
2019-05-15T02:34:19.975Z,1.90
2019-05-15T02:37:09.812Z,2.10
2019-05-15T02:39:59.255Z,1.77
2019-05-15T02:42:51.535Z,2.10
2019-05-15T02:45:42.396Z,2.20
2019-05-15T02:48:32.055Z,1.90
2019-05-15T02:51:22.039Z,2.00
2019-05-15T02:54:11.671Z,1.62
2019-05-15T02:57:01.293Z,1.62
2019-05-15T02:59:53.023Z,2.27
2019-05-15T03:02:42.625Z,2.02
2019-05-15T03:05:34.170Z,2.00
2019-05-15T03:08:24.137Z,1.90
2019-05-15T03:11:13.807Z,1.90
2019-05-15T03:14:04.042Z,2.00
2019-05-15T03:16:53.673Z,1.75
2019-05-15T03:19:44.431Z,2.00
2019-05-15T03:22:35.008Z,1.60
2019-05-15T03:25:29.654Z,2.02
2019-05-15T03:28:19.253Z,1.95
2019-05-15T03:31:31.147Z,2.02
2019-05-15T03:34:03.084Z,2.30
2019-05-15T03:36:53.290Z,1.80
2019-05-15T03:39:46.991Z,1.80
2019-05-15T03:42:35.287Z,1.72
2019-05-15T03:45:25.618Z,1.70
2019-05-15T03:48:19.637Z,1.80
2019-05-15T03:51:10.816Z,2.12
2019-05-15T03:54:00.705Z,1.98
2019-05-15T03:56:51.925Z,2.20
2019-05-15T03:59:42.112Z,2.02
2019-05-15T04:02:31.597Z,2.42
2019-05-15T04:05:21.947Z,1.87
2019-05-15T04:08:11.832Z,2.37
2019-05-15T04:11:01.633Z,1.80
2019-05-15T04:13:51.915Z,2.20
2019-05-15T04:16:42.853Z,2.02
2019-05-15T04:19:33.449Z,2.50
2019-05-15T04:22:23.454Z,1.98
2019-05-15T04:25:18.893Z,2.30
2019-05-15T04:28:09.703Z,2.20
2019-05-15T04:30:59.928Z,2.25
2019-05-15T04:33:49.445Z,2.12
2019-05-15T04:36:44.297Z,2.20
2019-05-15T04:39:31.493Z,1.92
2019-05-15T04:42:21.072Z,1.90
2019-05-15T04:45:12.903Z,2.80
2019-05-15T04:48:02.754Z,2.50
2019-05-15T04:50:51.843Z,2.40
2019-05-15T04:53:41.837Z,2.05
2019-05-15T04:56:31.783Z,2.80
2019-05-15T04:59:22.121Z,2.45
2019-05-15T05:02:16.894Z,2.52
2019-05-15T05:05:05.784Z,2.45
2019-05-15T05:07:59.531Z,2.62
2019-05-15T05:10:48.835Z,2.60
2019-05-15T05:13:39.300Z,2.47
2019-05-15T05:16:30.307Z,2.42
2019-05-15T05:19:20.188Z,3.15
2019-05-15T05:22:13.638Z,2.75
2019-05-15T05:25:04.088Z,2.27
2019-05-15T05:27:52.747Z,2.60
2019-05-15T05:30:42.531Z,2.70
2019-05-15T05:33:32.791Z,2.17
2019-05-15T05:36:22.013Z,2.40
2019-05-15T05:39:15.327Z,2.58
2019-05-15T05:42:02.653Z,2.67
2019-05-15T05:44:51.894Z,2.92
2019-05-15T05:47:40.803Z,3.15
2019-05-15T05:50:44.118Z,2.40
2019-05-15T05:53:33.866Z,2.50
2019-05-15T05:56:24.310Z,2.70
2019-05-15T05:59:14.669Z,2.58
2019-05-15T06:02:04.390Z,2.58
2019-05-15T06:04:55.487Z,3.02
2019-05-15T06:07:48.680Z,2.70
2019-05-15T06:10:38.548Z,3.08
2019-05-15T06:13:29.283Z,2.65
2019-05-15T06:16:19.234Z,2.60
2019-05-15T06:19:08.472Z,2.75
2019-05-15T06:22:01.091Z,3.05
2019-05-15T06:24:50.868Z,2.58
2019-05-15T06:27:41.151Z,2.83
2019-05-15T06:30:31.468Z,2.80
2019-05-15T06:33:21.524Z,2.55
2019-05-15T06:36:11.101Z,2.25
2019-05-15T06:39:00.540Z,2.58
2019-05-15T06:41:49.865Z,2.52
2019-05-15T06:44:39.263Z,2.40
2019-05-15T06:47:28.483Z,2.08
2019-05-15T06:50:40.539Z,2.37
2019-05-15T06:53:30.426Z,2.33
2019-05-15T06:56:19.688Z,2.20
2019-05-15T06:59:09.104Z,2.40
2019-05-15T07:01:59.338Z,2.62
2019-05-15T07:04:49.069Z,2.33
2019-05-15T07:07:38.983Z,2.30
2019-05-15T07:10:30.018Z,2.22
2019-05-15T07:13:19.069Z,2.58
2019-05-15T07:16:08.913Z,2.58
2019-05-15T07:18:58.860Z,2.30
2019-05-15T07:21:49.649Z,2.40
2019-05-15T07:24:41.730Z,2.37
2019-05-15T07:27:31.638Z,2.10
2019-05-15T07:30:21.797Z,2.58
2019-05-15T07:33:10.996Z,2.35
2019-05-15T07:36:00.783Z,2.52
2019-05-15T07:38:50.520Z,2.47
2019-05-15T07:41:42.440Z,2.60
2019-05-15T07:44:33.091Z,2.15
2019-05-15T07:47:23.019Z,2.45
2019-05-15T07:50:14.135Z,2.22
2019-05-15T07:53:04.223Z,2.12
2019-05-15T07:55:54.417Z,1.95
2019-05-15T07:58:44.564Z,2.00
2019-05-15T08:01:33.790Z,2.02
2019-05-15T08:04:29.474Z,1.82
2019-05-15T08:07:18.512Z,1.70
2019-05-15T08:10:09.699Z,1.80
2019-05-15T08:13:00.415Z,1.70
2019-05-15T08:15:49.917Z,1.95
2019-05-15T08:18:40.436Z,1.95
2019-05-15T08:21:30.727Z,1.72
2019-05-15T08:24:21.090Z,1.95
2019-05-15T08:27:11.228Z,1.60
2019-05-15T08:30:01.334Z,1.40
2019-05-15T08:32:51.620Z,1.50
2019-05-15T08:35:44.625Z,1.37
2019-05-15T08:38:33.200Z,1.57
2019-05-15T08:41:22.927Z,1.37
2019-05-15T08:44:13.174Z,1.45
2019-05-15T08:47:02.836Z,1.47
2019-05-15T08:49:52.702Z,1.40
2019-05-15T08:52:43.394Z,1.50
2019-05-15T08:55:33.272Z,1.42
2019-05-15T08:58:24.760Z,1.45
2019-05-15T09:01:13.974Z,1.22
2019-05-15T09:04:03.356Z,1.70
2019-05-15T09:06:53.403Z,1.07
2019-05-15T09:09:43.002Z,1.40
2019-05-15T09:12:32.363Z,1.32
2019-05-15T09:15:22.080Z,1.12
2019-05-15T09:18:16.295Z,1.60
2019-05-15T09:21:04.538Z,1.30
2019-05-15T09:23:58.986Z,1.20
2019-05-15T09:26:48.998Z,1.30
2019-05-15T09:29:38.575Z,1.15
2019-05-15T09:32:28.573Z,1.15
2019-05-15T09:35:20.848Z,1.35
2019-05-15T09:38:10.380Z,1.22
2019-05-15T09:41:00.275Z,1.07
2019-05-15T09:43:49.767Z,1.27
2019-05-15T09:46:39.429Z,1.30
2019-05-15T09:49:30.519Z,1.10
2019-05-15T09:52:22.978Z,1.52
2019-05-15T09:55:11.265Z,1.05
2019-05-15T09:58:00.302Z,1.20
2019-05-15T10:00:51.933Z,1.10
2019-05-15T10:03:44.305Z,1.30
2019-05-15T10:06:31.586Z,1.07
2019-05-15T10:09:21.136Z,1.20
2019-05-15T10:12:10.682Z,0.98
2019-05-15T10:15:00.031Z,1.00
2019-05-15T10:17:51.192Z,1.10
2019-05-15T10:20:40.002Z,1.35
2019-05-15T10:23:29.382Z,1.00
2019-05-15T10:26:19.423Z,1.10
2019-05-15T10:29:09.127Z,1.20
2019-05-15T10:31:59.211Z,1.00
2019-05-15T10:34:47.835Z,0.93
2019-05-15T10:37:39.017Z,1.22
2019-05-15T10:40:29.594Z,1.32
2019-05-15T10:43:20.564Z,1.00
2019-05-15T10:46:13.553Z,1.00
2019-05-15T10:49:00.814Z,0.90
2019-05-15T10:51:49.591Z,1.10
2019-05-15T10:54:38.387Z,0.80
2019-05-15T10:57:28.174Z,0.95
2019-05-15T11:00:19.511Z,0.82
2019-05-15T11:03:09.014Z,0.90
2019-05-15T11:05:58.806Z,0.90
2019-05-15T11:08:51.076Z,0.80
2019-05-15T11:11:38.538Z,0.98
2019-05-15T11:14:28.619Z,0.95
2019-05-15T11:17:18.536Z,0.85
2019-05-15T11:20:08.483Z,0.95
2019-05-15T11:22:59.086Z,0.90
2019-05-15T11:25:48.855Z,0.90
2019-05-15T11:28:39.282Z,1.00
2019-05-15T11:31:29.039Z,1.00
2019-05-15T11:34:20.787Z,1.05
2019-05-15T11:37:10.128Z,1.00
2019-05-15T11:39:59.778Z,0.90
2019-05-15T11:42:48.898Z,0.90
2019-05-15T11:45:39.208Z,1.00
2019-05-15T11:48:30.032Z,1.05
2019-05-15T11:51:20.108Z,1.07
2019-05-15T11:54:08.879Z,0.95
2019-05-15T11:56:59.664Z,1.55
2019-05-15T11:59:55.245Z,1.30
2019-05-15T12:02:41.505Z,0.98
2019-05-15T12:05:30.565Z,0.98
2019-05-15T12:08:20.332Z,1.00
2019-05-15T12:11:11.876Z,1.02
2019-05-15T12:14:00.889Z,1.10
2019-05-15T12:17:05.572Z,1.00
2019-05-15T12:19:43.182Z,1.02
2019-05-15T12:22:32.058Z,1.00
2019-05-15T12:25:29.317Z,1.00
2019-05-15T12:28:16.528Z,1.13
2019-05-15T12:31:05.511Z,1.20
2019-05-15T12:33:54.787Z,1.20
2019-05-15T12:36:56.779Z,1.10
2019-05-15T12:39:35.023Z,1.10
2019-05-15T13:02:28.044Z,1.07
2019-05-15T13:05:19.240Z,1.30
2019-05-15T13:08:09.012Z,1.10
2019-05-15T13:10:58.892Z,1.35
2019-05-15T13:13:48.632Z,1.22
2019-05-15T13:16:39.035Z,1.30
2019-05-15T13:19:28.617Z,1.40
2019-05-15T13:22:24.466Z,1.40
2019-05-15T13:25:09.393Z,1.10
2019-05-15T13:27:58.183Z,1.25
2019-05-15T13:30:48.951Z,1.30
2019-05-15T13:33:39.700Z,1.20
2019-05-15T13:36:29.431Z,1.40
2019-05-15T13:39:18.596Z,1.27
2019-05-15T13:42:09.335Z,1.20
2019-05-15T13:44:59.215Z,1.20
2019-05-15T13:47:48.346Z,1.70
2019-05-15T13:50:40.415Z,1.80
2019-05-15T13:53:28.165Z,1.80
2019-05-15T13:56:18.270Z,1.95
2019-05-15T13:59:08.138Z,1.80
2019-05-15T14:01:59.379Z,1.98
2019-05-15T14:04:49.044Z,1.85
2019-05-15T14:07:48.988Z,1.98
2019-05-15T14:10:32.682Z,2.08
2019-05-15T14:13:22.182Z,2.12
2019-05-15T14:16:11.204Z,1.80
2019-05-15T14:19:00.359Z,1.67
2019-05-15T14:21:49.822Z,1.82
2019-05-15T14:24:39.272Z,1.70
2019-05-15T14:27:28.941Z,1.50
2019-05-15T14:30:19.067Z,1.70
2019-05-15T14:33:08.589Z,1.60
2019-05-15T14:35:58.432Z,1.55
2019-05-15T14:38:48.615Z,1.40
2019-05-15T14:41:38.238Z,1.72
2019-05-15T14:44:27.572Z,1.52
2019-05-15T14:47:19.273Z,1.98
2019-05-15T14:50:09.882Z,1.70
2019-05-15T14:53:00.176Z,1.80
2019-05-15T14:55:49.744Z,2.20
2019-05-15T14:58:38.866Z,2.33
2019-05-15T15:01:28.214Z,2.30
2019-05-15T15:04:18.427Z,2.30
2019-05-15T15:07:08.840Z,2.42
2019-05-15T15:09:58.404Z,2.30
2019-05-15T15:12:49.976Z,2.55
2019-05-15T15:15:38.486Z,2.05
2019-05-15T15:18:28.168Z,2.22
2019-05-15T15:21:22.169Z,2.47
2019-05-15T15:24:08.548Z,1.95
2019-05-15T15:26:58.942Z,2.83
2019-05-15T15:29:48.553Z,2.58
2019-05-15T15:32:37.790Z,2.58
2019-05-15T15:35:28.881Z,2.47
2019-05-15T15:38:22.859Z,2.20
2019-05-15T15:41:08.732Z,2.37
2019-05-15T15:43:58.666Z,2.87
2019-05-15T15:46:48.468Z,2.60
2019-05-15T15:49:38.757Z,2.35
2019-05-15T15:52:29.078Z,2.60
2019-05-15T15:55:18.891Z,2.75
2019-05-15T15:58:08.733Z,2.80
2019-05-15T16:00:58.868Z,2.67
2019-05-15T16:03:48.533Z,2.83
2019-05-15T16:06:38.798Z,2.58
2019-05-15T16:09:28.305Z,2.95
2019-05-15T16:12:18.570Z,2.35
2019-05-15T16:15:08.940Z,2.47
2019-05-15T16:17:59.378Z,2.90
2019-05-15T16:20:48.718Z,2.22
2019-05-15T16:23:38.539Z,2.45
2019-05-15T16:26:29.747Z,2.40
2019-05-15T16:29:19.962Z,2.72
2019-05-15T16:32:08.876Z,2.87
2019-05-15T16:35:02.064Z,2.65
2019-05-15T16:37:52.463Z,3.05
2019-05-15T16:40:48.736Z,3.05
2019-05-15T16:43:38.269Z,2.77
2019-05-15T16:46:28.254Z,2.80
2019-05-15T16:49:20.451Z,2.12
2019-05-15T16:52:09.812Z,2.45
2019-05-15T16:55:00.845Z,2.50
2019-05-15T16:57:50.414Z,2.77
2019-05-15T17:00:39.831Z,2.58
2019-05-15T17:03:29.154Z,2.50
2019-05-15T17:06:18.893Z,2.30
2019-05-15T17:09:20.849Z,2.40
2019-05-15T17:12:00.041Z,2.87
2019-05-15T17:14:49.372Z,2.35
2019-05-15T17:17:39.277Z,1.92
2019-05-15T17:20:29.204Z,2.30
2019-05-15T17:23:19.060Z,2.55
2019-05-15T17:26:08.869Z,2.50
2019-05-15T17:28:58.425Z,1.87
2019-05-15T17:31:48.831Z,2.80
2019-05-15T17:34:38.089Z,1.98
2019-05-15T17:37:28.678Z,2.10
2019-05-15T17:40:18.450Z,2.25
2019-05-15T17:43:09.357Z,2.35
2019-05-15T17:45:59.037Z,2.02
2019-05-15T17:48:55.743Z,2.30
2019-05-15T17:51:39.249Z,1.77
2019-05-15T17:54:29.833Z,2.25
2019-05-15T17:57:20.578Z,2.30
2019-05-15T18:00:12.720Z,1.85
2019-05-15T18:03:01.472Z,1.95
2019-05-15T18:05:50.932Z,2.20
2019-05-15T18:08:40.688Z,2.10
2019-05-15T18:11:29.982Z,1.72
2019-05-15T18:14:19.632Z,1.98
2019-05-15T18:17:08.791Z,2.10
2019-05-15T18:19:58.145Z,1.72
2019-05-15T18:22:48.146Z,1.80
2019-05-15T18:25:38.390Z,1.90
2019-05-15T18:28:27.574Z,2.12
2019-05-15T18:31:18.166Z,1.95
2019-05-15T18:34:10.827Z,2.17
2019-05-15T18:37:01.151Z,1.67
2019-05-15T18:40:02.193Z,1.75
2019-05-15T18:42:41.374Z,1.87
2019-05-15T18:45:30.584Z,1.60
2019-05-15T18:48:20.508Z,1.60
2019-05-15T18:51:10.042Z,1.80
2019-05-15T18:54:01.234Z,1.65
2019-05-15T18:56:50.695Z,1.52
2019-05-15T18:59:40.587Z,1.55
2019-05-15T19:02:32.606Z,1.40
2019-05-15T19:05:22.254Z,1.30
2019-05-15T19:08:13.066Z,1.45
2019-05-15T19:11:04.720Z,1.50
2019-05-15T19:13:53.982Z,1.40
2019-05-15T19:16:43.430Z,1.40
2019-05-15T19:19:32.598Z,1.42
2019-05-15T19:22:23.096Z,1.57
2019-05-15T19:25:13.530Z,1.72
2019-05-15T19:28:03.255Z,1.80
2019-05-15T19:30:52.637Z,1.70
2019-05-15T19:33:44.612Z,1.95
2019-05-15T19:36:33.971Z,1.50
2019-05-15T19:39:23.179Z,1.67
2019-05-15T19:42:12.818Z,1.45
2019-05-15T19:45:05.358Z,1.50
2019-05-15T19:47:55.432Z,1.77
2019-05-15T19:50:45.252Z,1.85
2019-05-15T19:53:35.899Z,1.80
2019-05-15T19:56:29.674Z,1.40
2019-05-15T19:59:22.441Z,1.85
2019-05-15T20:02:10.409Z,1.98
2019-05-15T20:05:00.025Z,1.77
2019-05-15T20:07:51.273Z,1.75
2019-05-15T20:10:40.728Z,1.80
2019-05-15T20:13:30.830Z,1.50
2019-05-15T20:16:21.369Z,2.00
2019-05-15T20:19:10.295Z,1.70
2019-05-15T20:22:00.127Z,1.98
2019-05-15T20:24:49.647Z,1.82
2019-05-15T20:27:41.401Z,1.60
2019-05-15T20:30:30.407Z,2.00
2019-05-15T20:33:19.362Z,1.70
2019-05-15T20:36:09.222Z,2.12
2019-05-15T20:39:01.222Z,2.05
2019-05-15T20:41:52.230Z,1.95
2019-05-15T20:44:41.795Z,1.90
2019-05-15T20:47:31.760Z,2.45
2019-05-15T20:50:20.837Z,2.30
2019-05-15T20:53:10.194Z,2.20
2019-05-15T20:55:59.577Z,2.00
2019-05-15T20:58:49.729Z,2.12
2019-05-15T21:01:39.987Z,2.40
2019-05-15T21:04:30.367Z,2.17
2019-05-15T21:07:34.441Z,2.55
2019-05-15T21:10:13.534Z,2.15
2019-05-15T21:13:03.958Z,2.40
2019-05-15T21:15:53.731Z,2.42
2019-05-15T21:18:45.070Z,1.95
2019-05-15T21:21:38.741Z,2.47
2019-05-15T21:24:28.527Z,2.30
2019-05-15T21:27:23.791Z,2.30
2019-05-15T21:30:12.533Z,2.70
2019-05-15T21:33:02.529Z,2.47
2019-05-15T21:35:53.597Z,2.75
2019-05-15T21:38:43.768Z,2.37
2019-05-15T21:41:33.637Z,2.22
2019-05-15T21:44:24.402Z,2.00
2019-05-15T21:47:14.121Z,2.30
2019-05-15T21:50:03.902Z,2.50
2019-05-15T21:52:53.617Z,2.87
2019-05-15T21:55:43.471Z,2.58
2019-05-15T21:58:33.005Z,2.75
2019-05-15T22:01:23.049Z,2.55
2019-05-15T22:04:13.390Z,2.72
2019-05-15T22:07:02.962Z,2.22
2019-05-15T22:09:52.392Z,2.67
2019-05-15T22:12:42.278Z,2.70
2019-05-15T22:15:32.421Z,2.40
2019-05-15T22:18:21.927Z,2.58
2019-05-15T22:21:12.521Z,2.87
2019-05-15T22:24:01.181Z,2.40
2019-05-15T22:26:52.880Z,2.42
2019-05-15T22:29:43.894Z,2.60
2019-05-15T22:32:34.244Z,2.80
2019-05-15T22:35:24.674Z,2.55
2019-05-15T22:38:14.390Z,2.35
2019-05-15T22:41:05.155Z,2.25
2019-05-15T22:43:53.991Z,2.25
2019-05-15T22:46:43.465Z,2.20
2019-05-15T22:49:32.140Z,2.70
2019-05-15T22:52:21.715Z,2.62
2019-05-15T22:55:11.455Z,2.70
2019-05-15T22:58:00.029Z,2.37
2019-05-15T23:00:51.679Z,2.55
2019-05-15T23:03:41.100Z,2.77
2019-05-15T23:06:30.722Z,2.70
2019-05-15T23:09:20.099Z,2.77
2019-05-15T23:12:11.319Z,2.70
2019-05-15T23:14:59.744Z,2.85
2019-05-15T23:17:48.818Z,2.70
2019-05-15T23:20:38.839Z,3.00
2019-05-15T23:23:28.807Z,3.12
2019-05-15T23:26:20.580Z,2.47
2019-05-15T23:29:10.205Z,2.62
2019-05-15T23:31:59.729Z,2.72
2019-05-15T23:34:49.228Z,2.70
2019-05-15T23:37:39.370Z,3.10
2019-05-15T23:40:29.072Z,2.52
2019-05-15T23:43:19.101Z,3.00
2019-05-15T23:46:08.919Z,2.87
2019-05-15T23:48:59.033Z,3.20
2019-05-15T23:51:51.787Z,3.00
2019-05-15T23:54:40.984Z,2.58
2019-05-15T23:57:29.576Z,3.08
